Time;durP1;ratioP1;P1;durP2;ratioP2;P2;SDS_P1;SDS_P2;PMS_P1;PMS_P2;Temp;Humidity;BMP_temperature;BMP_pressure;BME280_temperature;BME280_humidity;BME280_pressure;Samples;Min_cycle;Max_cycle;Signal;HPM_P1;HPM_P2
2023/06/18 00:01:15;;;;;;;8.25;4.72;;;25.40;74.20;;;;;;4262766;27;20102;-53
2023/06/18 00:03:17;;;;;;;10.98;5.20;;;25.40;74.60;;;;;;4250579;27;20412;-56
2023/06/18 00:05:19;;;;;;;6.43;5.03;;;25.40;74.50;;;;;;4248308;27;20046;-57
2023/06/18 00:07:22;;;;;;;6.60;4.97;;;25.50;74.60;;;;;;4258528;27;20093;-57
2023/06/18 00:09:24;;;;;;;9.07;5.50;;;25.50;74.80;;;;;;4246356;27;20051;-57
2023/06/18 00:11:27;;;;;;;7.68;4.57;;;25.40;75.10;;;;;;4248479;27;20050;-57
2023/06/18 00:13:29;;;;;;;6.60;4.80;;;25.50;74.70;;;;;;4259503;27;20057;-56
2023/06/18 00:15:33;;;;;;;;;;;25.40;75.10;;;;;;4263340;27;20701;-57
2023/06/18 00:17:36;;;;;;;6.60;5.47;;;25.40;75.50;;;;;;4252668;27;19950;-57
2023/06/18 00:19:38;;;;;;;5.82;5.22;;;25.40;76.30;;;;;;4263129;27;20175;-56
2023/06/18 00:21:41;;;;;;;5.90;5.00;;;25.30;76.20;;;;;;4241710;27;20050;-56
2023/06/18 00:23:44;;;;;;;6.25;4.80;;;25.40;75.70;;;;;;4264310;27;20047;-57
2023/06/18 00:25:46;;;;;;;5.72;4.65;;;25.40;76.70;;;;;;4262734;27;20042;-57
2023/06/18 00:27:48;;;;;;;7.28;4.88;;;25.40;75.70;;;;;;4250074;27;20480;-57
2023/06/18 00:29:50;;;;;;;6.18;4.53;;;25.30;75.20;;;;;;4246389;28;20467;-58
2023/06/18 00:31:53;;;;;;;6.82;5.32;;;25.30;75.30;;;;;;4251396;27;20131;-55
2023/06/18 00:33:55;;;;;;;7.35;4.78;;;25.30;76.00;;;;;;4253610;27;20047;-56
2023/06/18 00:35:57;;;;;;;8.15;4.88;;;25.30;75.80;;;;;;4248180;27;20055;-57
2023/06/18 00:38:03;;;;;;;9.23;5.50;;;25.30;76.10;;;;;;4258334;27;20047;-54
2023/06/18 00:40:08;;;;;;;5.82;5.00;;;25.30;75.70;;;;;;4246979;28;20043;-54
2023/06/18 00:42:11;;;;;;;8.05;5.10;;;25.30;75.50;;;;;;4252000;27;20065;-54
2023/06/18 00:44:13;;;;;;;7.80;5.15;;;25.30;75.80;;;;;;4254129;27;20043;-54
2023/06/18 00:46:17;;;;;;;6.72;4.93;;;25.30;75.60;;;;;;4247227;27;20146;-54
2023/06/18 00:48:20;;;;;;;10.30;5.38;;;25.30;75.60;;;;;;4250842;27;20114;-56
2023/06/18 00:50:26;;;;;;;8.80;5.32;;;25.30;75.90;;;;;;4263741;27;20089;-56
2023/06/18 00:52:28;;;;;;;9.43;4.97;;;25.20;76.60;;;;;;4258889;27;20046;-56
2023/06/18 00:54:34;;;;;;;4.68;4.20;;;25.20;76.70;;;;;;4256522;27;20126;-56
2023/06/18 00:56:38;;;;;;;6.97;4.78;;;25.20;76.30;;;;;;4264016;27;20046;-57
2023/06/18 00:58:40;;;;;;;6.70;4.85;;;25.20;76.40;;;;;;4258063;27;20360;-56
2023/06/18 01:00:43;;;;;;;6.43;4.70;;;25.20;76.80;;;;;;4246758;28;20449;-56
2023/06/18 01:02:49;;;;;;;6.87;5.13;;;25.20;76.80;;;;;;4251317;27;20130;-56
2023/06/18 01:04:54;;;;;;;6.88;4.60;;;25.20;76.60;;;;;;4253749;27;20436;-57
2023/06/18 01:06:57;;;;;;;6.97;5.05;;;25.20;77.00;;;;;;4248759;27;20050;-56
2023/06/18 01:09:01;;;;;;;8.65;4.80;;;25.20;76.90;;;;;;4253816;27;20074;-56
2023/06/18 01:11:06;;;;;;;7.60;5.00;;;25.20;76.70;;;;;;4267345;27;20457;-56
2023/06/18 01:13:10;;;;;;;9.40;5.05;;;25.20;77.20;;;;;;4262067;27;20050;-56
2023/06/18 01:15:12;;;;;;;9.18;5.32;;;25.20;78.90;;;;;;4259781;27;20126;-56
2023/06/18 01:17:19;;;;;;;7.10;5.35;;;25.00;80.90;;;;;;4267130;27;20078;-57
2023/06/18 01:19:30;;;;;;;;;;;25.00;84.70;;;;;;4254085;27;20414;-58
2023/06/18 01:21:35;;;;;;;12.65;6.43;;;24.80;85.30;;;;;;4249620;27;20014;-56
2023/06/18 01:23:49;;;;;;;7.35;5.93;;;24.60;86.60;;;;;;4261724;27;20093;-56
2023/06/18 01:25:53;;;;;;;12.82;6.70;;;24.50;88.60;;;;;;4262176;27;20045;-56
2023/06/18 01:27:56;;;;;;;10.43;6.95;;;24.30;90.00;;;;;;4253262;27;20138;-56
2023/06/18 01:30:01;;;;;;;12.20;7.72;;;24.20;91.50;;;;;;4260485;27;20042;-56
2023/06/18 01:32:03;;;;;;;12.88;6.05;;;24.10;92.20;;;;;;4249462;27;20057;-56
2023/06/18 01:34:06;;;;;;;7.13;6.00;;;24.00;92.60;;;;;;4256635;27;20053;-56
2023/06/18 01:36:12;;;;;;;8.18;6.55;;;23.80;93.10;;;;;;4255205;27;20487;-57
2023/06/18 01:38:26;;;;;;;7.50;6.00;;;23.80;92.80;;;;;;4249854;27;20126;-57
2023/06/18 01:40:37;;;;;;;8.85;6.15;;;23.70;93.30;;;;;;4261121;27;20079;-56
2023/06/18 01:42:46;;;;;;;7.65;6.82;;;23.60;93.30;;;;;;4249309;27;20051;-56
2023/06/18 01:44:55;;;;;;;7.80;6.80;;;23.50;93.90;;;;;;4259631;27;20392;-56
2023/06/18 01:46:59;;;;;;;14.25;7.53;;;23.50;94.10;;;;;;4250407;27;20047;-55
2023/06/18 01:49:04;;;;;;;11.48;6.35;;;23.40;95.40;;;;;;4250317;27;20130;-56
2023/06/18 01:51:07;;;;;;;8.75;6.70;;;23.40;94.70;;;;;;4259645;27;20481;-56
2023/06/18 01:53:13;;;;;;;10.15;6.57;;;23.30;95.10;;;;;;4249600;27;20051;-56
2023/06/18 01:55:17;;;;;;;12.68;7.20;;;23.30;95.20;;;;;;4260679;27;20051;-58
2023/06/18 01:57:19;;;;;;;8.02;7.00;;;23.30;95.90;;;;;;4250534;27;20051;-53
2023/06/18 01:59:21;;;;;;;8.80;7.70;;;23.20;97.90;;;;;;4250088;27;20043;-53
2023/06/18 02:01:25;;;;;;;12.20;7.72;;;23.20;97.70;;;;;;4265983;27;20039;-57
2023/06/18 02:03:29;;;;;;;11.57;7.60;;;23.20;98.00;;;;;;4266288;27;20510;-54
2023/06/18 02:05:31;;;;;;;9.67;7.23;;;23.20;98.50;;;;;;4255479;27;20097;-56
2023/06/18 02:07:33;;;;;;;10.95;7.07;;;23.20;98.70;;;;;;4264526;27;20451;-56
2023/06/18 02:09:35;;;;;;;10.05;7.93;;;23.20;98.60;;;;;;4263465;27;20043;-56
2023/06/18 02:11:38;;;;;;;8.85;7.28;;;23.10;99.90;;;;;;4254565;27;20039;-56
2023/06/18 02:13:43;;;;;;;10.85;8.25;;;23.10;99.90;;;;;;4266279;27;20047;-57
2023/06/18 02:15:45;;;;;;;8.43;7.47;;;23.10;99.90;;;;;;4256077;27;20042;-56
2023/06/18 02:17:47;;;;;;;12.25;7.93;;;23.10;99.90;;;;;;4247851;27;20066;-55
2023/06/18 02:19:51;;;;;;;12.48;8.38;;;23.10;99.90;;;;;;4249498;27;20080;-55
2023/06/18 02:21:53;;;;;;;9.27;7.47;;;23.10;99.90;;;;;;4260722;27;20063;-56
2023/06/18 02:23:56;;;;;;;11.93;8.63;;;23.10;99.90;;;;;;4248668;27;20043;-56
2023/06/18 02:25:58;;;;;;;9.93;8.23;;;23.10;99.90;;;;;;4257285;27;20043;-56
2023/06/18 02:28:00;;;;;;;14.73;8.23;;;23.10;99.90;;;;;;4263254;27;20078;-55
2023/06/18 02:30:06;;;;;;;12.13;7.90;;;23.00;99.90;;;;;;4262778;27;20104;-56
2023/06/18 02:32:08;;;;;;;11.20;8.40;;;22.90;99.90;;;;;;4254228;27;20134;-56
2023/06/18 02:34:10;;;;;;;10.25;8.57;;;22.90;99.90;;;;;;4265671;27;20051;-56
2023/06/18 02:36:14;;;;;;;10.65;8.23;;;22.80;99.90;;;;;;4257904;27;20051;-57
2023/06/18 02:38:16;;;;;;;13.52;9.02;;;22.90;99.90;;;;;;4260527;27;20039;-57
2023/06/18 02:40:18;;;;;;;11.43;9.00;;;22.80;99.90;;;;;;4263403;27;20046;-56
2023/06/18 02:42:22;;;;;;;13.93;9.13;;;22.80;99.90;;;;;;4253774;27;20085;-55
2023/06/18 02:44:24;;;;;;;12.38;8.68;;;22.80;99.90;;;;;;4265145;27;20047;-56
2023/06/18 02:46:26;;;;;;;13.77;8.15;;;22.80;99.90;;;;;;4258836;27;20039;-56
2023/06/18 02:48:28;;;;;;;11.05;8.38;;;22.80;99.90;;;;;;4258471;27;20117;-56
2023/06/18 02:50:30;;;;;;;9.95;8.02;;;22.80;99.90;;;;;;4264280;27;20461;-56
2023/06/18 02:52:34;;;;;;;11.18;8.48;;;22.80;99.90;;;;;;4253889;27;20054;-56
2023/06/18 02:54:37;;;;;;;9.73;8.32;;;22.80;99.90;;;;;;4265269;27;20043;-56
2023/06/18 02:56:40;;;;;;;10.93;7.57;;;22.80;99.90;;;;;;4259721;27;20047;-57
2023/06/18 02:58:42;;;;;;;9.23;7.80;;;22.80;99.90;;;;;;4257245;27;20054;-56
2023/06/18 03:00:44;;;;;;;12.27;8.75;;;22.80;99.90;;;;;;4246717;27;20122;-56
2023/06/18 03:02:46;;;;;;;9.00;7.97;;;22.80;99.90;;;;;;4252495;27;20555;-57
2023/06/18 03:04:48;;;;;;;10.93;7.75;;;22.80;99.90;;;;;;4265282;27;20073;-57
2023/06/18 03:06:50;;;;;;;10.82;8.13;;;22.80;99.90;;;;;;4261113;27;20066;-57
2023/06/18 03:08:54;;;;;;;9.70;8.30;;;22.90;99.90;;;;;;4255946;27;20031;-56
2023/06/18 03:10:57;;;;;;;10.25;7.97;;;22.90;99.90;;;;;;4265524;27;20409;-56
2023/06/18 03:12:59;;;;;;;13.70;8.38;;;22.90;99.90;;;;;;4252997;27;20138;-56
2023/06/18 03:15:01;;;;;;;13.02;7.43;;;23.00;99.90;;;;;;4265444;27;20046;-56
2023/06/18 03:17:04;;;;;;;13.60;9.23;;;22.90;99.90;;;;;;4262052;27;20043;-58
2023/06/18 03:19:06;;;;;;;14.82;8.75;;;23.00;99.90;;;;;;4254504;27;20042;-56
2023/06/18 03:21:08;;;;;;;11.35;7.93;;;22.90;99.90;;;;;;4265110;27;20139;-56
2023/06/18 03:23:11;;;;;;;12.82;8.23;;;22.90;99.90;;;;;;4253516;27;20055;-56
2023/06/18 03:25:14;;;;;;;11.23;7.80;;;22.90;99.90;;;;;;4263438;27;20129;-56
2023/06/18 03:27:16;;;;;;;10.95;8.45;;;23.00;99.90;;;;;;4257588;27;20158;-56
2023/06/18 03:29:18;;;;;;;11.48;8.00;;;23.00;99.90;;;;;;4257020;27;20354;-56
2023/06/18 03:31:21;;;;;;;14.73;9.10;;;22.90;99.90;;;;;;4247914;27;20047;-56
2023/06/18 03:33:23;;;;;;;11.30;8.02;;;23.00;99.90;;;;;;4257646;27;20145;-57
2023/06/18 03:35:25;;;;;;;9.88;7.85;;;22.90;99.90;;;;;;4250389;27;20130;-57
2023/06/18 03:37:27;;;;;;;12.70;7.65;;;22.90;99.90;;;;;;4249161;27;20039;-56
2023/06/18 03:39:29;;;;;;;11.30;8.07;;;23.00;99.90;;;;;;4258260;27;20063;-56
2023/06/18 03:41:33;;;;;;;13.98;8.65;;;23.00;99.90;;;;;;4247411;27;20104;-56
2023/06/18 03:43:35;;;;;;;11.98;8.70;;;22.90;99.90;;;;;;4255652;27;20549;-56
2023/06/18 03:45:37;;;;;;;10.48;8.48;;;22.90;99.90;;;;;;4251519;27;20050;-56
2023/06/18 03:47:39;;;;;;;12.38;8.93;;;22.90;99.90;;;;;;4248941;27;20117;-55
2023/06/18 03:49:41;;;;;;;11.48;9.27;;;22.90;99.90;;;;;;4257729;27;20047;-56
2023/06/18 03:51:44;;;;;;;13.50;9.70;;;22.90;99.90;;;;;;4247361;27;20039;-55
2023/06/18 03:53:46;;;;;;;12.80;8.77;;;23.00;99.90;;;;;;4254541;27;20062;-58
2023/06/18 03:55:48;;;;;;;12.18;9.50;;;22.90;99.90;;;;;;4252868;27;20050;-56
2023/06/18 03:57:51;;;;;;;12.20;9.73;;;22.90;99.90;;;;;;4248612;27;20104;-56
2023/06/18 03:59:53;;;;;;;10.32;8.68;;;22.80;99.90;;;;;;4257689;27;20034;-57
2023/06/18 04:01:56;;;;;;;16.15;9.70;;;22.80;99.90;;;;;;4247434;27;20047;-56
2023/06/18 04:03:59;;;;;;;12.55;10.13;;;22.80;99.90;;;;;;4253238;27;20035;-57
2023/06/18 04:06:01;;;;;;;12.55;9.80;;;22.80;99.90;;;;;;4253647;27;20476;-56
2023/06/18 04:08:03;;;;;;;12.57;9.70;;;22.80;99.90;;;;;;4247861;27;20067;-56
2023/06/18 04:10:06;;;;;;;13.43;10.75;;;22.80;99.90;;;;;;4258128;27;20077;-56
2023/06/18 04:12:09;;;;;;;12.25;10.35;;;22.80;99.90;;;;;;4247051;27;20126;-56
2023/06/18 04:14:12;;;;;;;13.88;11.30;;;22.90;99.90;;;;;;4251925;27;20049;-56
2023/06/18 04:16:14;;;;;;;14.23;9.68;;;22.80;99.90;;;;;;4254674;27;20500;-56
2023/06/18 04:18:17;;;;;;;15.82;10.07;;;22.80;99.90;;;;;;4247313;27;20067;-58
2023/06/18 04:20:19;;;;;;;15.48;9.68;;;22.80;99.90;;;;;;4251368;27;20594;-56
2023/06/18 04:22:22;;;;;;;11.65;8.38;;;22.80;99.90;;;;;;4264483;27;20051;-55
2023/06/18 04:24:24;;;;;;;11.20;7.72;;;22.80;99.90;;;;;;4260032;27;20480;-56
2023/06/18 04:26:26;;;;;;;12.73;7.47;;;22.70;99.90;;;;;;4253166;27;20047;-57
2023/06/18 04:28:28;;;;;;;10.98;7.15;;;22.70;99.90;;;;;;4247121;28;20043;-54
2023/06/18 04:30:32;;;;;;;13.00;6.65;;;22.70;99.90;;;;;;4257971;27;20450;-55
2023/06/18 04:32:34;;;;;;;7.40;6.10;;;22.70;99.90;;;;;;4247440;27;20049;-58
2023/06/18 04:34:37;;;;;;;7.13;5.00;;;22.60;99.90;;;;;;4249666;27;20039;-56
2023/06/18 04:36:40;;;;;;;6.80;4.72;;;22.60;99.90;;;;;;4256935;27;20069;-56
2023/06/18 04:38:42;;;;;;;5.80;4.10;;;22.60;99.90;;;;;;4246698;28;20043;-57
2023/06/18 04:40:44;;;;;;;5.60;4.45;;;22.60;99.90;;;;;;4256744;27;20503;-57
2023/06/18 04:42:46;;;;;;;8.55;4.40;;;22.50;99.90;;;;;;4251880;27;20043;-57
2023/06/18 04:44:48;;;;;;;5.28;4.18;;;22.50;99.90;;;;;;4250698;27;20117;-54
2023/06/18 04:46:52;;;;;;;6.50;3.78;;;22.60;99.90;;;;;;4261517;27;20126;-61
2023/06/18 04:48:54;;;;;;;9.63;4.57;;;22.60;99.90;;;;;;4231462;28;20432;-54
2023/06/18 04:50:58;;;;;;;4.43;3.85;;;22.60;99.90;;;;;;4260029;27;20037;-57
2023/06/18 04:53:00;;;;;;;6.88;3.60;;;22.60;99.90;;;;;;4252853;27;20412;-55
2023/06/18 04:55:03;;;;;;;4.65;3.38;;;22.60;99.90;;;;;;4251485;27;20049;-54
2023/06/18 04:57:07;;;;;;;4.13;3.50;;;22.60;99.90;;;;;;4262038;27;20054;-54
2023/06/18 04:59:09;;;;;;;4.40;3.30;;;22.50;99.90;;;;;;4249381;27;20043;-54
2023/06/18 05:01:11;;;;;;;6.53;3.45;;;22.60;99.90;;;;;;4258730;27;20060;-54
2023/06/18 05:03:14;;;;;;;6.65;3.45;;;22.60;99.90;;;;;;4253994;27;20047;-53
2023/06/18 05:05:16;;;;;;;3.85;3.45;;;22.70;99.90;;;;;;4251365;27;20039;-53
2023/06/18 05:07:18;;;;;;;3.92;3.22;;;22.60;99.90;;;;;;4261556;27;20039;-56
2023/06/18 05:09:20;;;;;;;3.70;2.90;;;22.60;99.90;;;;;;4249299;27;20078;-58
2023/06/18 05:11:22;;;;;;;3.25;2.67;;;22.60;99.80;;;;;;4256919;27;20053;-55
2023/06/18 05:13:24;;;;;;;4.60;3.30;;;22.60;99.80;;;;;;4255400;27;20043;-60
2023/06/18 05:15:26;;;;;;;4.25;3.20;;;22.70;99.60;;;;;;4251176;27;20047;-53
2023/06/18 05:17:28;;;;;;;3.72;3.28;;;22.70;99.60;;;;;;4245890;27;20424;-54
2023/06/18 05:19:32;;;;;;;4.65;3.38;;;22.70;99.60;;;;;;4266174;27;20038;-54
2023/06/18 05:21:34;;;;;;;4.18;3.58;;;22.70;99.60;;;;;;4262291;27;20038;-54
2023/06/18 05:23:36;;;;;;;3.05;2.85;;;22.70;99.90;;;;;;4256211;27;20057;-53
2023/06/18 05:25:38;;;;;;;4.18;3.70;;;22.70;99.80;;;;;;4249889;27;20487;-54
2023/06/18 05:27:40;;;;;;;6.00;3.63;;;22.70;99.70;;;;;;4251685;27;20047;-54
2023/06/18 05:29:42;;;;;;;4.68;3.55;;;22.70;99.60;;;;;;4266087;27;20085;-54
2023/06/18 05:31:44;;;;;;;4.22;2.97;;;22.70;99.50;;;;;;4262015;27;20039;-54
2023/06/18 05:33:46;;;;;;;3.92;3.40;;;22.60;99.60;;;;;;4258971;27;20498;-53
2023/06/18 05:35:50;;;;;;;4.22;3.10;;;22.70;99.40;;;;;;4266757;27;20126;-54
2023/06/18 05:37:52;;;;;;;4.07;3.30;;;22.60;99.70;;;;;;4262939;27;20576;-54
2023/06/18 05:39:54;;;;;;;3.88;3.10;;;22.60;99.60;;;;;;4248398;27;20043;-54
2023/06/18 05:41:56;;;;;;;3.10;2.80;;;22.50;99.50;;;;;;4253545;27;20053;-54
2023/06/18 05:43:58;;;;;;;5.68;3.00;;;22.50;99.50;;;;;;4257221;27;20039;-53
2023/06/18 05:46:00;;;;;;;3.28;2.97;;;22.60;99.60;;;;;;4266756;27;20068;-54
2023/06/18 05:48:03;;;;;;;6.38;2.97;;;22.60;99.50;;;;;;4255030;27;20481;-53
2023/06/18 05:50:06;;;;;;;4.47;3.08;;;22.60;99.50;;;;;;4264527;27;20073;-53
2023/06/18 05:52:10;;;;;;;3.70;2.80;;;22.50;99.40;;;;;;4263895;27;20069;-53
2023/06/18 05:54:12;;;;;;;4.85;3.72;;;22.50;99.40;;;;;;4256203;27;20415;-56
2023/06/18 05:56:14;;;;;;;5.30;4.35;;;22.50;99.60;;;;;;4266557;27;20038;-54
2023/06/18 05:58:17;;;;;;;5.70;4.50;;;22.60;99.90;;;;;;4255588;27;20126;-55
2023/06/18 06:00:19;;;;;;;6.38;4.95;;;22.50;99.90;;;;;;4245027;27;20074;-56
2023/06/18 06:02:21;;;;;;;6.93;4.70;;;22.30;99.90;;;;;;4264658;27;20047;-55
2023/06/18 06:04:24;;;;;;;5.25;4.18;;;22.30;99.90;;;;;;4260556;27;20047;-56
2023/06/18 06:06:27;;;;;;;5.38;4.25;;;22.30;99.90;;;;;;4249314;27;20374;-56
2023/06/18 06:08:30;;;;;;;5.60;3.53;;;22.40;99.90;;;;;;4258029;27;20129;-56
2023/06/18 06:10:34;;;;;;;5.05;3.75;;;22.30;99.90;;;;;;4251148;27;20046;-55
2023/06/18 06:12:37;;;;;;;4.55;3.85;;;22.30;99.90;;;;;;4250400;27;20086;-53
2023/06/18 06:14:39;;;;;;;4.25;3.45;;;22.30;99.90;;;;;;4260655;27;20507;-54
2023/06/18 06:16:41;;;;;;;5.80;3.80;;;22.40;99.90;;;;;;4249036;27;20075;-54
2023/06/18 06:18:43;;;;;;;7.15;3.40;;;22.50;99.90;;;;;;4257615;27;20047;-54
2023/06/18 06:20:45;;;;;;;3.80;2.80;;;22.50;99.90;;;;;;4252221;27;20107;-54
2023/06/18 06:22:48;;;;;;;3.67;2.97;;;22.50;99.90;;;;;;4249815;27;20039;-54
2023/06/18 06:24:52;;;;;;;5.28;2.63;;;22.50;99.80;;;;;;4260358;27;20455;-55
2023/06/18 06:26:55;;;;;;;3.50;2.90;;;22.40;99.90;;;;;;4249096;27;20495;-54
2023/06/18 06:28:57;;;;;;;4.38;3.22;;;22.50;99.70;;;;;;4254593;27;20096;-56
2023/06/18 06:30:59;;;;;;;4.13;3.03;;;22.60;99.40;;;;;;4253022;27;20049;-58
2023/06/18 06:33:02;;;;;;;3.20;2.85;;;22.60;99.30;;;;;;4250186;27;20534;-54
2023/06/18 06:35:05;;;;;;;4.10;3.28;;;22.70;99.00;;;;;;4259998;27;20053;-54
2023/06/18 06:37:07;;;;;;;4.15;3.53;;;22.70;99.20;;;;;;4248332;27;20077;-54
2023/06/18 06:39:10;;;;;;;3.08;2.78;;;22.70;99.20;;;;;;4254085;27;20046;-54
2023/06/18 06:41:13;;;;;;;3.67;3.15;;;22.90;98.90;;;;;;4254599;27;20080;-54
2023/06/18 06:43:15;;;;;;;4.95;3.50;;;23.00;99.00;;;;;;4249529;27;20116;-53
2023/06/18 06:45:17;;;;;;;3.90;3.45;;;23.10;99.00;;;;;;4260165;27;20129;-54
2023/06/18 06:47:19;;;;;;;4.85;3.72;;;23.20;98.90;;;;;;4248728;27;20058;-52
2023/06/18 06:49:22;;;;;;;5.00;4.00;;;23.10;99.30;;;;;;4252540;27;20050;-55
2023/06/18 06:51:24;;;;;;;6.72;5.00;;;23.00;99.70;;;;;;4255666;27;20035;-60
2023/06/18 06:53:26;;;;;;;6.03;4.82;;;23.00;99.90;;;;;;4248610;27;20043;-54
2023/06/18 06:55:28;;;;;;;5.15;4.65;;;23.10;99.90;;;;;;4252120;27;20134;-55
2023/06/18 06:57:32;;;;;;;9.48;5.40;;;23.20;99.90;;;;;;4265577;27;20116;-55
2023/06/18 06:59:34;;;;;;;7.05;5.70;;;23.20;99.90;;;;;;4260498;27;20223;-54
2023/06/18 07:01:39;;;;;;;7.93;6.20;;;23.20;99.90;;;;;;4256243;27;20110;-55
2023/06/18 07:03:41;;;;;;;;;;;23.30;99.70;;;;;;4265669;27;20494;-54
2023/06/18 07:05:43;;;;;;;7.57;5.82;;;23.20;99.80;;;;;;4251488;27;19981;-54
2023/06/18 07:07:46;;;;;;;8.70;5.53;;;23.10;99.70;;;;;;4264856;27;20399;-55
2023/06/18 07:09:48;;;;;;;8.52;5.68;;;23.20;99.60;;;;;;4261567;27;20065;-55
2023/06/18 07:11:50;;;;;;;7.57;5.35;;;23.30;99.40;;;;;;4255463;27;20053;-52
2023/06/18 07:13:53;;;;;;;8.27;5.15;;;23.30;99.40;;;;;;4265250;27;20070;-54
2023/06/18 07:15:55;;;;;;;7.32;5.55;;;23.20;99.40;;;;;;4253881;27;20064;-52
2023/06/18 07:17:57;;;;;;;8.88;6.13;;;23.10;99.50;;;;;;4263567;27;20038;-54
2023/06/18 07:19:59;;;;;;;7.50;5.20;;;23.30;99.40;;;;;;4240888;27;20039;-54
2023/06/18 07:22:03;;;;;;;8.20;5.72;;;23.30;99.40;;;;;;4265344;27;20547;-54
2023/06/18 07:24:06;;;;;;;6.93;5.15;;;23.30;99.30;;;;;;4265208;27;20042;-58
2023/06/18 07:26:08;;;;;;;11.75;5.47;;;23.30;99.40;;;;;;4255238;27;20051;-52
2023/06/18 07:28:10;;;;;;;7.80;5.28;;;23.60;99.00;;;;;;4250512;27;20040;-53
2023/06/18 07:30:14;;;;;;;7.25;4.97;;;23.70;98.70;;;;;;4249989;27;20467;-53
2023/06/18 07:32:16;;;;;;;5.17;4.67;;;23.90;98.30;;;;;;4253578;27;20431;-54
2023/06/18 07:34:18;;;;;;;8.93;5.20;;;23.70;98.40;;;;;;4265090;27;20049;-53
2023/06/18 07:36:20;;;;;;;7.32;5.68;;;24.00;98.30;;;;;;4256175;27;20045;-57
2023/06/18 07:38:22;;;;;;;7.40;4.70;;;24.10;98.30;;;;;;4261105;27;20043;-53
2023/06/18 07:40:25;;;;;;;12.65;5.03;;;24.10;97.50;;;;;;4262299;27;20043;-56
2023/06/18 07:42:28;;;;;;;6.45;5.03;;;24.20;97.60;;;;;;4252889;27;20410;-54
2023/06/18 07:44:30;;;;;;;5.07;4.50;;;24.30;97.60;;;;;;4265250;27;20089;-56
2023/06/18 07:46:34;;;;;;;7.18;4.68;;;24.40;97.30;;;;;;4259597;27;20035;-56
2023/06/18 07:48:37;;;;;;;7.25;4.53;;;24.50;96.70;;;;;;4252905;27;20500;-54
2023/06/18 07:50:40;;;;;;;8.63;4.75;;;24.40;96.50;;;;;;4248232;27;20051;-54
2023/06/18 07:52:42;;;;;;;5.38;4.63;;;24.50;96.40;;;;;;4235005;27;20112;-53
2023/06/18 07:54:44;;;;;;;5.93;4.32;;;24.40;96.20;;;;;;4264717;27;20047;-53
2023/06/18 07:56:46;;;;;;;5.07;4.28;;;24.50;96.30;;;;;;4258585;27;20066;-55
2023/06/18 07:58:48;;;;;;;4.97;4.43;;;24.40;96.30;;;;;;4258901;27;20043;-55
2023/06/18 08:00:51;;;;;;;6.47;4.70;;;24.40;96.80;;;;;;4262563;27;20072;-52
2023/06/18 08:02:54;;;;;;;5.00;4.50;;;24.60;96.50;;;;;;4252819;27;20051;-54
2023/06/18 08:04:56;;;;;;;7.38;5.03;;;24.80;96.40;;;;;;4264286;27;20039;-56
2023/06/18 08:06:59;;;;;;;11.13;4.65;;;25.00;96.20;;;;;;4258964;27;20043;-58
2023/06/18 08:09:01;;;;;;;7.13;5.05;;;24.90;95.90;;;;;;4257103;27;20460;-56
2023/06/18 08:11:04;;;;;;;8.52;5.05;;;25.10;95.90;;;;;;4263268;27;20498;-56
2023/06/18 08:13:06;;;;;;;8.75;5.65;;;25.10;95.90;;;;;;4259899;27;20162;-57
2023/06/18 08:15:10;;;;;;;5.82;5.28;;;25.10;95.70;;;;;;4246723;27;20118;-56
2023/06/18 08:17:15;;;;;;;11.57;5.10;;;25.10;95.70;;;;;;4250516;27;20146;-56
2023/06/18 08:19:19;;;;;;;6.15;4.90;;;25.10;95.90;;;;;;4254748;27;20146;-54
2023/06/18 08:21:22;;;;;;;9.70;5.05;;;25.30;95.80;;;;;;4246162;27;20051;-55
2023/06/18 08:23:24;;;;;;;5.47;4.88;;;25.40;95.30;;;;;;4259850;27;20042;-54
2023/06/18 08:25:26;;;;;;;8.43;4.63;;;25.40;94.80;;;;;;4247130;27;20121;-54
2023/06/18 08:27:28;;;;;;;6.68;5.10;;;25.50;94.40;;;;;;4249248;27;20039;-54
2023/06/18 08:29:30;;;;;;;7.32;5.10;;;25.50;94.40;;;;;;4255460;27;20039;-59
2023/06/18 08:31:32;;;;;;;7.68;5.18;;;25.70;94.40;;;;;;4247204;28;20043;-53
2023/06/18 08:33:34;;;;;;;8.38;5.13;;;25.70;94.30;;;;;;4257940;27;20080;-54
2023/06/18 08:35:38;;;;;;;6.22;5.15;;;25.80;93.90;;;;;;4248002;27;20118;-54
2023/06/18 08:37:40;;;;;;;7.38;5.43;;;25.70;93.10;;;;;;4249064;27;20043;-54
2023/06/18 08:39:42;;;;;;;7.15;4.68;;;25.40;93.70;;;;;;4256320;27;20039;-54
2023/06/18 08:41:45;;;;;;;6.00;4.57;;;25.60;93.60;;;;;;4246729;28;20063;-54
2023/06/18 08:43:48;;;;;;;7.10;4.75;;;25.70;93.40;;;;;;4257441;27;20089;-54
2023/06/18 08:45:51;;;;;;;6.43;5.00;;;25.40;93.40;;;;;;4249231;27;20464;-55
2023/06/18 08:47:58;;;;;;;8.00;4.95;;;25.50;93.40;;;;;;4248553;27;20506;-53
2023/06/18 08:50:06;;;;;;;6.30;4.45;;;25.40;93.30;;;;;;4256164;27;20039;-54
2023/06/18 08:52:10;;;;;;;7.03;4.05;;;25.10;92.50;;;;;;4246256;28;20147;-54
2023/06/18 08:54:14;;;;;;;5.38;3.80;;;25.10;92.60;;;;;;4257940;27;20041;-54
2023/06/18 08:56:22;;;;;;;5.35;4.00;;;25.00;92.70;;;;;;4248229;27;20074;-54
2023/06/18 08:58:26;;;;;;;5.22;4.30;;;25.10;92.50;;;;;;4249456;27;20136;-55
2023/06/18 09:00:29;;;;;;;6.38;4.00;;;25.10;92.60;;;;;;4256283;27;20447;-54
2023/06/18 09:02:31;;;;;;;7.30;4.05;;;25.10;92.60;;;;;;4247183;28;20130;-54
2023/06/18 09:04:35;;;;;;;5.05;3.95;;;25.10;92.30;;;;;;4258859;27;20039;-54
2023/06/18 09:06:38;;;;;;;5.10;3.70;;;25.10;92.70;;;;;;4248826;27;20107;-54
2023/06/18 09:08:42;;;;;;;4.85;3.70;;;25.00;92.40;;;;;;4249284;27;20496;-54
2023/06/18 09:10:46;;;;;;;5.82;3.65;;;25.10;92.70;;;;;;4256344;27;20043;-53
2023/06/18 09:12:48;;;;;;;4.63;3.30;;;25.10;92.80;;;;;;4247091;28;20043;-54
2023/06/18 09:14:50;;;;;;;6.70;3.70;;;25.30;92.70;;;;;;4257902;27;20039;-54
2023/06/18 09:16:54;;;;;;;6.22;3.83;;;25.30;92.20;;;;;;4249386;27;20047;-54
2023/06/18 09:18:56;;;;;;;4.20;3.80;;;25.30;92.10;;;;;;4248883;27;20085;-54
2023/06/18 09:20:59;;;;;;;5.72;4.10;;;25.30;92.20;;;;;;4257129;27;20035;-55
2023/06/18 09:23:07;;;;;;;9.27;3.97;;;25.30;92.40;;;;;;4247385;28;20043;-54
2023/06/18 09:25:11;;;;;;;7.72;4.10;;;25.40;92.00;;;;;;4252054;27;20047;-54
2023/06/18 09:27:13;;;;;;;7.50;4.10;;;25.40;92.20;;;;;;4252910;27;20043;-54
2023/06/18 09:29:15;;;;;;;6.70;4.32;;;25.40;92.20;;;;;;4251343;27;20036;-54
2023/06/18 09:31:25;;;;;;;5.05;4.00;;;25.40;92.30;;;;;;4254222;27;20039;-54
2023/06/18 09:33:29;;;;;;;8.40;4.20;;;25.50;92.20;;;;;;4267050;27;20061;-54
2023/06/18 09:35:31;;;;;;;4.27;3.87;;;25.50;92.30;;;;;;4256253;27;20138;-54
2023/06/18 09:37:34;;;;;;;7.05;4.20;;;25.60;92.30;;;;;;4264650;27;20459;-55
2023/06/18 09:39:38;;;;;;;6.25;4.43;;;25.40;92.00;;;;;;4265465;27;20039;-54
2023/06/18 09:41:43;;;;;;;;;;;25.30;92.30;;;;;;4255213;27;20353;-56
2023/06/18 09:43:50;;;;;;;5.38;4.07;;;25.20;92.20;;;;;;4266563;27;19969;-56
2023/06/18 09:45:52;;;;;;;5.93;4.55;;;25.30;92.40;;;;;;4261623;27;20034;-54
2023/06/18 09:47:55;;;;;;;5.88;4.50;;;25.40;92.30;;;;;;4251523;27;20051;-54
2023/06/18 09:49:57;;;;;;;7.25;4.35;;;25.40;92.30;;;;;;4250151;27;20043;-54
2023/06/18 09:52:00;;;;;;;5.10;4.22;;;25.50;92.10;;;;;;4254970;27;20046;-53
2023/06/18 09:54:02;;;;;;;5.65;4.32;;;25.60;92.10;;;;;;4266502;27;20107;-53
2023/06/18 09:56:09;;;;;;;6.53;4.68;;;25.90;92.10;;;;;;4243411;27;20401;-54
2023/06/18 09:58:13;;;;;;;8.50;4.88;;;26.00;91.90;;;;;;4266386;27;20042;-53
2023/06/18 10:00:17;;;;;;;5.80;3.92;;;26.30;91.60;;;;;;4263296;27;20070;-53
2023/06/18 10:02:24;;;;;;;6.93;4.22;;;26.30;91.30;;;;;;4236515;27;20082;-53
2023/06/18 10:04:27;;;;;;;9.27;4.78;;;26.10;91.20;;;;;;4266341;27;20042;-53
2023/06/18 10:06:30;;;;;;;8.95;5.10;;;26.00;91.10;;;;;;4261743;27;20039;-52
2023/06/18 10:08:35;;;;;;;8.20;4.82;;;26.10;91.20;;;;;;4251644;27;20511;-54
2023/06/18 10:10:40;;;;;;;7.53;4.75;;;26.10;91.30;;;;;;4249287;27;20134;-53
2023/06/18 10:12:43;;;;;;;7.55;4.70;;;26.30;91.30;;;;;;4255082;27;20051;-52
2023/06/18 10:14:50;;;;;;;8.85;4.85;;;26.70;90.90;;;;;;4265634;27;20046;-54
2023/06/18 10:16:57;;;;;;;5.93;4.88;;;26.70;90.80;;;;;;4255499;27;20043;-53
2023/06/18 10:19:03;;;;;;;6.95;5.20;;;26.70;91.10;;;;;;4264352;27;20126;-53
2023/06/18 10:21:07;;;;;;;7.32;4.95;;;26.60;91.10;;;;;;4262081;27;20054;-54
2023/06/18 10:23:10;;;;;;;6.30;5.03;;;26.80;91.00;;;;;;4255317;27;20071;-54
2023/06/18 10:25:12;;;;;;;7.25;4.68;;;26.70;90.80;;;;;;4266076;27;20093;-54
2023/06/18 10:27:16;;;;;;;6.57;4.85;;;26.80;90.80;;;;;;4254985;27;20059;-54
2023/06/18 10:29:18;;;;;;;7.90;4.57;;;26.80;90.70;;;;;;4248369;27;20051;-54
2023/06/18 10:31:23;;;;;;;7.80;5.65;;;27.00;90.80;;;;;;4251477;27;20437;-54
2023/06/18 10:33:27;;;;;;;5.40;4.78;;;27.00;90.40;;;;;;4254924;27;20142;-55
2023/06/18 10:35:29;;;;;;;5.50;5.00;;;27.00;90.30;;;;;;4265681;27;20187;-54
2023/06/18 10:37:34;;;;;;;8.48;5.18;;;27.00;90.50;;;;;;4255558;27;20043;-54
2023/06/18 10:39:37;;;;;;;6.15;5.30;;;27.00;90.20;;;;;;4262554;27;20468;-54